sensor_id;sensor_type;location;lat;lon;timestamp;P1;durP1;ratioP1;P2;durP2;ratioP2
45043;SDS011;30784;48.490;9.688;2023-05-29T00:01:07;28.63;;;20.23;;
45043;SDS011;30784;48.490;9.688;2023-05-29T00:03:34;17.77;;;11.75;;
45043;SDS011;30784;48.490;9.688;2023-05-29T00:06:02;13.43;;;7.80;;
45043;SDS011;30784;48.490;9.688;2023-05-29T00:08:28;10.32;;;5.50;;
45043;SDS011;30784;48.490;9.688;2023-05-29T00:10:53;9.35;;;4.38;;
45043;SDS011;30784;48.490;9.688;2023-05-29T00:13:19;8.75;;;3.95;;
45043;SDS011;30784;48.490;9.688;2023-05-29T00:15:45;9.00;;;3.17;;
45043;SDS011;30784;48.490;9.688;2023-05-29T00:18:11;8.85;;;2.97;;
45043;SDS011;30784;48.490;9.688;2023-05-29T00:20:37;7.45;;;2.92;;
45043;SDS011;30784;48.490;9.688;2023-05-29T00:23:03;8.40;;;2.95;;
45043;SDS011;30784;48.490;9.688;2023-05-29T00:25:31;8.30;;;3.03;;
45043;SDS011;30784;48.490;9.688;2023-05-29T00:27:57;7.35;;;2.80;;
45043;SDS011;30784;48.490;9.688;2023-05-29T00:30:22;6.38;;;2.50;;
45043;SDS011;30784;48.490;9.688;2023-05-29T00:32:48;7.85;;;3.00;;
45043;SDS011;30784;48.490;9.688;2023-05-29T00:35:14;8.05;;;2.83;;
45043;SDS011;30784;48.490;9.688;2023-05-29T00:37:40;8.40;;;3.08;;
45043;SDS011;30784;48.490;9.688;2023-05-29T00:40:06;8.55;;;2.90;;
45043;SDS011;30784;48.490;9.688;2023-05-29T00:42:32;7.43;;;2.95;;
45043;SDS011;30784;48.490;9.688;2023-05-29T00:44:57;8.43;;;3.10;;
45043;SDS011;30784;48.490;9.688;2023-05-29T00:47:23;7.47;;;2.65;;
45043;SDS011;30784;48.490;9.688;2023-05-29T00:49:49;7.93;;;2.90;;
45043;SDS011;30784;48.490;9.688;2023-05-29T00:52:17;7.05;;;2.72;;
45043;SDS011;30784;48.490;9.688;2023-05-29T00:54:44;10.85;;;5.88;;
45043;SDS011;30784;48.490;9.688;2023-05-29T00:57:10;22.35;;;15.25;;
45043;SDS011;30784;48.490;9.688;2023-05-29T00:59:38;16.08;;;8.55;;
45043;SDS011;30784;48.490;9.688;2023-05-29T01:02:05;10.73;;;5.20;;
45043;SDS011;30784;48.490;9.688;2023-05-29T01:04:31;9.07;;;3.72;;
45043;SDS011;30784;48.490;9.688;2023-05-29T01:06:59;7.35;;;3.05;;
45043;SDS011;30784;48.490;9.688;2023-05-29T01:09:27;7.72;;;3.05;;
45043;SDS011;30784;48.490;9.688;2023-05-29T01:17:59;7.07;;;2.70;;
45043;SDS011;30784;48.490;9.688;2023-05-29T01:26:04;7.72;;;2.92;;
45043;SDS011;30784;48.490;9.688;2023-05-29T01:28:44;8.13;;;2.72;;
45043;SDS011;30784;48.490;9.688;2023-05-29T01:31:14;7.95;;;2.72;;
45043;SDS011;30784;48.490;9.688;2023-05-29T01:33:51;9.43;;;2.72;;
45043;SDS011;30784;48.490;9.688;2023-05-29T01:36:17;6.80;;;2.42;;
45043;SDS011;30784;48.490;9.688;2023-05-29T01:38:43;8.57;;;2.72;;
45043;SDS011;30784;48.490;9.688;2023-05-29T01:41:08;7.93;;;2.90;;
45043;SDS011;30784;48.490;9.688;2023-05-29T01:43:34;7.10;;;2.60;;
45043;SDS011;30784;48.490;9.688;2023-05-29T01:46:00;6.88;;;2.60;;
45043;SDS011;30784;48.490;9.688;2023-05-29T01:48:26;11.10;;;5.78;;
45043;SDS011;30784;48.490;9.688;2023-05-29T01:50:52;18.25;;;9.93;;
45043;SDS011;30784;48.490;9.688;2023-05-29T01:53:20;12.77;;;7.97;;
45043;SDS011;30784;48.490;9.688;2023-05-29T01:55:47;10.75;;;6.15;;
45043;SDS011;30784;48.490;9.688;2023-05-29T01:58:13;9.57;;;4.43;;
45043;SDS011;30784;48.490;9.688;2023-05-29T02:00:39;9.70;;;3.63;;
45043;SDS011;30784;48.490;9.688;2023-05-29T02:03:05;7.05;;;2.83;;
45043;SDS011;30784;48.490;9.688;2023-05-29T02:05:31;9.40;;;2.75;;
45043;SDS011;30784;48.490;9.688;2023-05-29T02:07:56;8.32;;;3.03;;
45043;SDS011;30784;48.490;9.688;2023-05-29T02:10:22;8.50;;;2.80;;
45043;SDS011;30784;48.490;9.688;2023-05-29T02:12:47;7.55;;;2.90;;
45043;SDS011;30784;48.490;9.688;2023-05-29T02:15:13;7.63;;;2.70;;
45043;SDS011;30784;48.490;9.688;2023-05-29T02:17:38;6.90;;;2.40;;
45043;SDS011;30784;48.490;9.688;2023-05-29T02:20:06;8.43;;;3.22;;
45043;SDS011;30784;48.490;9.688;2023-05-29T02:22:32;7.78;;;2.85;;
45043;SDS011;30784;48.490;9.688;2023-05-29T02:24:58;9.10;;;2.92;;
45043;SDS011;30784;48.490;9.688;2023-05-29T02:27:23;6.90;;;2.65;;
45043;SDS011;30784;48.490;9.688;2023-05-29T02:29:49;7.35;;;2.60;;
45043;SDS011;30784;48.490;9.688;2023-05-29T02:32:14;6.97;;;2.50;;
45043;SDS011;30784;48.490;9.688;2023-05-29T02:34:40;7.25;;;2.63;;
45043;SDS011;30784;48.490;9.688;2023-05-29T02:37:05;6.22;;;2.35;;
45043;SDS011;30784;48.490;9.688;2023-05-29T02:39:31;8.13;;;2.75;;
45043;SDS011;30784;48.490;9.688;2023-05-29T02:41:56;11.15;;;5.45;;
45043;SDS011;30784;48.490;9.688;2023-05-29T02:44:22;19.20;;;11.55;;
45043;SDS011;30784;48.490;9.688;2023-05-29T02:46:48;17.00;;;11.40;;
45043;SDS011;30784;48.490;9.688;2023-05-29T02:49:13;14.55;;;8.23;;
45043;SDS011;30784;48.490;9.688;2023-05-29T02:51:39;11.45;;;5.72;;
45043;SDS011;30784;48.490;9.688;2023-05-29T02:54:04;9.38;;;4.10;;
45043;SDS011;30784;48.490;9.688;2023-05-29T02:56:30;8.80;;;3.53;;
45043;SDS011;30784;48.490;9.688;2023-05-29T02:58:56;10.18;;;3.20;;
45043;SDS011;30784;48.490;9.688;2023-05-29T03:01:21;7.72;;;2.88;;
45043;SDS011;30784;48.490;9.688;2023-05-29T03:03:47;7.15;;;2.70;;
45043;SDS011;30784;48.490;9.688;2023-05-29T03:06:12;7.20;;;2.60;;
45043;SDS011;30784;48.490;9.688;2023-05-29T03:08:38;9.50;;;2.70;;
45043;SDS011;30784;48.490;9.688;2023-05-29T03:11:09;6.93;;;2.50;;
45043;SDS011;30784;48.490;9.688;2023-05-29T03:13:38;6.78;;;2.47;;
45043;SDS011;30784;48.490;9.688;2023-05-29T03:16:03;9.30;;;4.40;;
45043;SDS011;30784;48.490;9.688;2023-05-29T03:18:29;8.98;;;4.05;;
45043;SDS011;30784;48.490;9.688;2023-05-29T03:20:55;9.38;;;3.17;;
45043;SDS011;30784;48.490;9.688;2023-05-29T03:23:21;8.27;;;3.03;;
45043;SDS011;30784;48.490;9.688;2023-05-29T03:25:47;8.75;;;3.05;;
45043;SDS011;30784;48.490;9.688;2023-05-29T03:28:13;6.55;;;2.53;;
45043;SDS011;30784;48.490;9.688;2023-05-29T03:30:38;9.70;;;4.18;;
45043;SDS011;30784;48.490;9.688;2023-05-29T03:33:04;13.18;;;5.45;;
45043;SDS011;30784;48.490;9.688;2023-05-29T03:35:30;11.18;;;4.60;;
45043;SDS011;30784;48.490;9.688;2023-05-29T03:37:56;8.55;;;3.35;;
45043;SDS011;30784;48.490;9.688;2023-05-29T03:40:21;7.65;;;3.20;;
45043;SDS011;30784;48.490;9.688;2023-05-29T03:42:47;6.93;;;2.72;;
45043;SDS011;30784;48.490;9.688;2023-05-29T03:45:12;7.53;;;2.67;;
45043;SDS011;30784;48.490;9.688;2023-05-29T03:47:38;7.32;;;2.95;;
45043;SDS011;30784;48.490;9.688;2023-05-29T03:50:04;8.10;;;2.78;;
45043;SDS011;30784;48.490;9.688;2023-05-29T03:52:30;7.53;;;3.00;;
45043;SDS011;30784;48.490;9.688;2023-05-29T03:54:55;7.90;;;2.80;;
45043;SDS011;30784;48.490;9.688;2023-05-29T03:57:21;7.13;;;2.90;;
45043;SDS011;30784;48.490;9.688;2023-05-29T03:59:46;9.30;;;3.30;;
45043;SDS011;30784;48.490;9.688;2023-05-29T04:02:12;7.47;;;2.90;;
45043;SDS011;30784;48.490;9.688;2023-05-29T04:04:37;7.10;;;2.50;;
45043;SDS011;30784;48.490;9.688;2023-05-29T04:07:04;7.25;;;2.63;;
45043;SDS011;30784;48.490;9.688;2023-05-29T04:09:31;7.90;;;2.60;;
45043;SDS011;30784;48.490;9.688;2023-05-29T04:11:58;7.43;;;2.92;;
45043;SDS011;30784;48.490;9.688;2023-05-29T04:14:27;8.10;;;2.70;;
45043;SDS011;30784;48.490;9.688;2023-05-29T04:16:53;8.57;;;3.40;;
45043;SDS011;30784;48.490;9.688;2023-05-29T04:19:18;7.60;;;2.60;;
45043;SDS011;30784;48.490;9.688;2023-05-29T04:21:44;7.80;;;3.08;;
45043;SDS011;30784;48.490;9.688;2023-05-29T04:24:09;7.35;;;2.92;;
45043;SDS011;30784;48.490;9.688;2023-05-29T04:26:36;7.60;;;3.00;;
45043;SDS011;30784;48.490;9.688;2023-05-29T04:29:06;7.90;;;3.47;;
45043;SDS011;30784;48.490;9.688;2023-05-29T04:31:32;8.63;;;3.03;;
45043;SDS011;30784;48.490;9.688;2023-05-29T04:33:57;9.13;;;3.50;;
45043;SDS011;30784;48.490;9.688;2023-05-29T04:36:25;8.45;;;2.97;;
45043;SDS011;30784;48.490;9.688;2023-05-29T04:38:53;8.13;;;3.13;;
45043;SDS011;30784;48.490;9.688;2023-05-29T04:41:19;8.63;;;2.67;;
45043;SDS011;30784;48.490;9.688;2023-05-29T04:43:48;7.82;;;2.95;;
45043;SDS011;30784;48.490;9.688;2023-05-29T04:46:15;8.82;;;3.38;;
45043;SDS011;30784;48.490;9.688;2023-05-29T04:48:41;8.13;;;3.30;;
45043;SDS011;30784;48.490;9.688;2023-05-29T04:51:07;7.18;;;2.70;;
45043;SDS011;30784;48.490;9.688;2023-05-29T04:53:35;8.35;;;3.03;;
45043;SDS011;30784;48.490;9.688;2023-05-29T04:56:07;7.63;;;3.08;;
45043;SDS011;30784;48.490;9.688;2023-05-29T04:58:34;7.88;;;3.00;;
45043;SDS011;30784;48.490;9.688;2023-05-29T05:00:59;9.07;;;3.40;;
45043;SDS011;30784;48.490;9.688;2023-05-29T05:03:27;10.00;;;3.45;;
45043;SDS011;30784;48.490;9.688;2023-05-29T05:05:53;9.07;;;3.38;;
45043;SDS011;30784;48.490;9.688;2023-05-29T05:08:19;7.00;;;2.95;;
45043;SDS011;30784;48.490;9.688;2023-05-29T05:10:45;8.25;;;3.22;;
45043;SDS011;30784;48.490;9.688;2023-05-29T05:13:10;9.07;;;3.38;;
45043;SDS011;30784;48.490;9.688;2023-05-29T05:15:37;9.63;;;3.33;;
45043;SDS011;30784;48.490;9.688;2023-05-29T05:18:02;7.35;;;3.05;;
45043;SDS011;30784;48.490;9.688;2023-05-29T05:20:28;8.63;;;3.25;;
45043;SDS011;30784;48.490;9.688;2023-05-29T05:22:53;8.15;;;3.10;;
45043;SDS011;30784;48.490;9.688;2023-05-29T05:25:21;7.80;;;3.38;;
45043;SDS011;30784;48.490;9.688;2023-05-29T05:27:46;8.77;;;4.03;;
45043;SDS011;30784;48.490;9.688;2023-05-29T05:30:12;9.55;;;3.75;;
45043;SDS011;30784;48.490;9.688;2023-05-29T05:32:38;10.63;;;4.15;;
45043;SDS011;30784;48.490;9.688;2023-05-29T05:35:03;7.88;;;3.30;;
45043;SDS011;30784;48.490;9.688;2023-05-29T05:37:29;8.43;;;3.53;;
45043;SDS011;30784;48.490;9.688;2023-05-29T05:39:55;7.80;;;3.40;;
45043;SDS011;30784;48.490;9.688;2023-05-29T05:42:23;9.52;;;3.47;;
45043;SDS011;30784;48.490;9.688;2023-05-29T05:44:48;8.57;;;3.58;;
45043;SDS011;30784;48.490;9.688;2023-05-29T05:47:14;8.40;;;3.10;;
45043;SDS011;30784;48.490;9.688;2023-05-29T05:49:40;8.05;;;3.40;;
45043;SDS011;30784;48.490;9.688;2023-05-29T05:52:05;9.00;;;3.42;;
45043;SDS011;30784;48.490;9.688;2023-05-29T05:54:31;8.65;;;3.25;;
45043;SDS011;30784;48.490;9.688;2023-05-29T05:56:56;10.07;;;3.33;;
45043;SDS011;30784;48.490;9.688;2023-05-29T05:59:22;8.80;;;3.30;;
45043;SDS011;30784;48.490;9.688;2023-05-29T06:01:47;8.27;;;3.30;;
45043;SDS011;30784;48.490;9.688;2023-05-29T06:04:13;9.10;;;3.50;;
45043;SDS011;30784;48.490;9.688;2023-05-29T06:06:39;10.10;;;3.22;;
45043;SDS011;30784;48.490;9.688;2023-05-29T06:09:06;8.77;;;3.67;;
45043;SDS011;30784;48.490;9.688;2023-05-29T06:11:31;8.15;;;3.38;;
45043;SDS011;30784;48.490;9.688;2023-05-29T06:13:57;9.10;;;3.33;;
45043;SDS011;30784;48.490;9.688;2023-05-29T06:16:23;7.70;;;3.28;;
45043;SDS011;30784;48.490;9.688;2023-05-29T06:18:49;9.13;;;3.17;;
45043;SDS011;30784;48.490;9.688;2023-05-29T06:21:14;7.68;;;3.22;;
45043;SDS011;30784;48.490;9.688;2023-05-29T06:23:40;8.20;;;3.28;;
45043;SDS011;30784;48.490;9.688;2023-05-29T06:26:06;7.75;;;3.25;;
45043;SDS011;30784;48.490;9.688;2023-05-29T06:28:32;8.85;;;3.28;;
45043;SDS011;30784;48.490;9.688;2023-05-29T06:30:57;11.05;;;4.10;;
45043;SDS011;30784;48.490;9.688;2023-05-29T06:33:23;8.52;;;3.40;;
45043;SDS011;30784;48.490;9.688;2023-05-29T06:35:49;9.82;;;3.38;;
45043;SDS011;30784;48.490;9.688;2023-05-29T06:38:15;7.55;;;3.50;;
45043;SDS011;30784;48.490;9.688;2023-05-29T06:40:41;7.82;;;3.30;;
45043;SDS011;30784;48.490;9.688;2023-05-29T06:43:06;9.43;;;3.70;;
45043;SDS011;30784;48.490;9.688;2023-05-29T06:45:32;9.50;;;3.90;;
45043;SDS011;30784;48.490;9.688;2023-05-29T06:47:57;9.43;;;4.00;;
45043;SDS011;30784;48.490;9.688;2023-05-29T06:50:23;8.18;;;3.30;;
45043;SDS011;30784;48.490;9.688;2023-05-29T06:52:48;8.68;;;3.65;;
45043;SDS011;30784;48.490;9.688;2023-05-29T06:55:14;8.27;;;3.75;;
45043;SDS011;30784;48.490;9.688;2023-05-29T06:57:39;9.02;;;3.67;;
45043;SDS011;30784;48.490;9.688;2023-05-29T07:00:05;9.80;;;3.60;;
45043;SDS011;30784;48.490;9.688;2023-05-29T07:02:32;9.20;;;3.78;;
45043;SDS011;30784;48.490;9.688;2023-05-29T07:04:58;8.95;;;3.95;;
45043;SDS011;30784;48.490;9.688;2023-05-29T07:07:23;8.27;;;3.72;;
45043;SDS011;30784;48.490;9.688;2023-05-29T07:09:49;8.20;;;3.53;;
45043;SDS011;30784;48.490;9.688;2023-05-29T07:12:14;8.77;;;4.00;;
45043;SDS011;30784;48.490;9.688;2023-05-29T07:14:40;9.35;;;3.88;;
45043;SDS011;30784;48.490;9.688;2023-05-29T07:17:05;10.27;;;3.90;;
45043;SDS011;30784;48.490;9.688;2023-05-29T07:19:31;9.88;;;3.70;;
45043;SDS011;30784;48.490;9.688;2023-05-29T07:21:59;9.40;;;3.85;;
45043;SDS011;30784;48.490;9.688;2023-05-29T07:24:25;9.40;;;3.40;;
45043;SDS011;30784;48.490;9.688;2023-05-29T07:26:51;8.57;;;3.90;;
45043;SDS011;30784;48.490;9.688;2023-05-29T07:29:17;10.10;;;3.67;;
45043;SDS011;30784;48.490;9.688;2023-05-29T07:31:45;9.27;;;3.90;;
45043;SDS011;30784;48.490;9.688;2023-05-29T07:34:11;8.82;;;3.88;;
45043;SDS011;30784;48.490;9.688;2023-05-29T07:36:37;7.82;;;3.58;;
45043;SDS011;30784;48.490;9.688;2023-05-29T07:39:21;8.27;;;3.67;;
45043;SDS011;30784;48.490;9.688;2023-05-29T07:41:47;8.75;;;3.80;;
45043;SDS011;30784;48.490;9.688;2023-05-29T07:44:13;8.27;;;3.70;;
45043;SDS011;30784;48.490;9.688;2023-05-29T07:46:38;8.75;;;3.65;;
45043;SDS011;30784;48.490;9.688;2023-05-29T07:49:04;9.65;;;3.60;;
45043;SDS011;30784;48.490;9.688;2023-05-29T07:51:30;8.73;;;3.90;;
45043;SDS011;30784;48.490;9.688;2023-05-29T07:53:56;8.43;;;3.70;;
45043;SDS011;30784;48.490;9.688;2023-05-29T07:56:21;9.85;;;4.38;;
45043;SDS011;30784;48.490;9.688;2023-05-29T07:58:47;10.15;;;3.85;;
45043;SDS011;30784;48.490;9.688;2023-05-29T08:01:12;8.25;;;3.70;;
45043;SDS011;30784;48.490;9.688;2023-05-29T08:03:38;8.27;;;3.55;;
45043;SDS011;30784;48.490;9.688;2023-05-29T08:06:06;8.90;;;3.45;;
45043;SDS011;30784;48.490;9.688;2023-05-29T08:08:32;7.97;;;3.42;;
45043;SDS011;30784;48.490;9.688;2023-05-29T08:10:57;9.68;;;3.58;;
45043;SDS011;30784;48.490;9.688;2023-05-29T08:13:23;7.45;;;3.20;;
45043;SDS011;30784;48.490;9.688;2023-05-29T08:15:48;9.13;;;3.58;;
45043;SDS011;30784;48.490;9.688;2023-05-29T08:18:14;7.68;;;3.20;;
45043;SDS011;30784;48.490;9.688;2023-05-29T08:20:39;8.95;;;3.75;;
45043;SDS011;30784;48.490;9.688;2023-05-29T08:23:05;9.23;;;3.70;;
45043;SDS011;30784;48.490;9.688;2023-05-29T08:25:30;8.82;;;3.60;;
45043;SDS011;30784;48.490;9.688;2023-05-29T08:27:56;7.85;;;3.25;;
45043;SDS011;30784;48.490;9.688;2023-05-29T08:30:22;8.38;;;3.30;;
45043;SDS011;30784;48.490;9.688;2023-05-29T08:32:47;8.10;;;3.55;;
45043;SDS011;30784;48.490;9.688;2023-05-29T08:35:15;7.68;;;3.13;;
45043;SDS011;30784;48.490;9.688;2023-05-29T08:37:41;8.65;;;4.07;;
45043;SDS011;30784;48.490;9.688;2023-05-29T08:40:07;8.02;;;3.40;;
45043;SDS011;30784;48.490;9.688;2023-05-29T08:42:34;8.43;;;3.70;;
45043;SDS011;30784;48.490;9.688;2023-05-29T08:45:02;8.23;;;3.38;;
45043;SDS011;30784;48.490;9.688;2023-05-29T08:47:29;8.00;;;3.50;;
45043;SDS011;30784;48.490;9.688;2023-05-29T08:49:58;7.03;;;3.10;;
45043;SDS011;30784;48.490;9.688;2023-05-29T08:52:26;8.57;;;3.88;;
45043;SDS011;30784;48.490;9.688;2023-05-29T08:54:54;8.95;;;3.28;;
45043;SDS011;30784;48.490;9.688;2023-05-29T08:57:20;8.13;;;3.35;;
45043;SDS011;30784;48.490;9.688;2023-05-29T08:59:47;8.43;;;3.10;;
45043;SDS011;30784;48.490;9.688;2023-05-29T09:02:17;8.30;;;3.30;;
45043;SDS011;30784;48.490;9.688;2023-05-29T09:04:42;8.48;;;3.88;;
45043;SDS011;30784;48.490;9.688;2023-05-29T09:07:13;7.13;;;2.90;;
45043;SDS011;30784;48.490;9.688;2023-05-29T09:09:40;7.53;;;3.25;;
45043;SDS011;30784;48.490;9.688;2023-05-29T09:12:05;7.88;;;3.00;;
45043;SDS011;30784;48.490;9.688;2023-05-29T09:14:33;7.20;;;2.88;;
45043;SDS011;30784;48.490;9.688;2023-05-29T09:16:59;7.13;;;2.95;;
45043;SDS011;30784;48.490;9.688;2023-05-29T09:19:25;7.90;;;3.38;;
45043;SDS011;30784;48.490;9.688;2023-05-29T09:21:51;8.38;;;3.22;;
45043;SDS011;30784;48.490;9.688;2023-05-29T09:24:16;8.18;;;3.17;;
45043;SDS011;30784;48.490;9.688;2023-05-29T09:26:51;7.68;;;3.05;;
45043;SDS011;30784;48.490;9.688;2023-05-29T09:29:17;7.43;;;3.03;;
45043;SDS011;30784;48.490;9.688;2023-05-29T09:31:45;8.10;;;3.17;;
45043;SDS011;30784;48.490;9.688;2023-05-29T09:34:11;7.50;;;3.47;;
45043;SDS011;30784;48.490;9.688;2023-05-29T09:36:37;7.57;;;3.00;;
45043;SDS011;30784;48.490;9.688;2023-05-29T09:39:03;8.13;;;2.83;;
45043;SDS011;30784;48.490;9.688;2023-05-29T09:41:29;7.57;;;2.92;;
45043;SDS011;30784;48.490;9.688;2023-05-29T09:43:59;8.05;;;3.50;;
45043;SDS011;30784;48.490;9.688;2023-05-29T09:46:26;7.10;;;3.20;;
45043;SDS011;30784;48.490;9.688;2023-05-29T09:48:51;8.20;;;3.35;;
45043;SDS011;30784;48.490;9.688;2023-05-29T09:51:21;7.85;;;3.42;;
45043;SDS011;30784;48.490;9.688;2023-05-29T09:53:48;10.05;;;3.63;;
45043;SDS011;30784;48.490;9.688;2023-05-29T09:56:15;6.90;;;3.08;;
45043;SDS011;30784;48.490;9.688;2023-05-29T09:58:42;7.32;;;3.40;;
45043;SDS011;30784;48.490;9.688;2023-05-29T10:01:14;9.50;;;3.92;;
45043;SDS011;30784;48.490;9.688;2023-05-29T10:03:41;8.40;;;3.38;;
45043;SDS011;30784;48.490;9.688;2023-05-29T10:06:07;7.55;;;3.03;;
45043;SDS011;30784;48.490;9.688;2023-05-29T10:08:42;7.25;;;3.05;;
45043;SDS011;30784;48.490;9.688;2023-05-29T10:11:14;7.03;;;2.90;;
45043;SDS011;30784;48.490;9.688;2023-05-29T10:16:14;7.95;;;3.40;;
45043;SDS011;30784;48.490;9.688;2023-05-29T10:18:43;8.68;;;3.50;;
45043;SDS011;30784;48.490;9.688;2023-05-29T10:21:17;7.78;;;3.40;;
45043;SDS011;30784;48.490;9.688;2023-05-29T10:23:45;9.00;;;3.17;;
45043;SDS011;30784;48.490;9.688;2023-05-29T10:26:21;10.43;;;3.13;;
45043;SDS011;30784;48.490;9.688;2023-05-29T10:34:42;6.95;;;2.70;;
45043;SDS011;30784;48.490;9.688;2023-05-29T10:40:05;7.78;;;3.00;;
45043;SDS011;30784;48.490;9.688;2023-05-29T10:42:46;7.72;;;2.63;;
45043;SDS011;30784;48.490;9.688;2023-05-29T10:50:35;7.05;;;2.90;;
45043;SDS011;30784;48.490;9.688;2023-05-29T10:53:09;7.05;;;2.90;;
45043;SDS011;30784;48.490;9.688;2023-05-29T10:55:35;6.38;;;2.70;;
45043;SDS011;30784;48.490;9.688;2023-05-29T10:58:05;7.50;;;3.00;;
45043;SDS011;30784;48.490;9.688;2023-05-29T11:00:39;6.85;;;2.90;;
45043;SDS011;30784;48.490;9.688;2023-05-29T11:03:11;7.38;;;2.83;;
45043;SDS011;30784;48.490;9.688;2023-05-29T11:08:44;7.10;;;3.30;;
45043;SDS011;30784;48.490;9.688;2023-05-29T11:11:11;7.07;;;2.78;;
45043;SDS011;30784;48.490;9.688;2023-05-29T11:13:37;6.50;;;2.72;;
45043;SDS011;30784;48.490;9.688;2023-05-29T11:16:14;7.63;;;2.58;;
45043;SDS011;30784;48.490;9.688;2023-05-29T11:19:03;6.05;;;2.30;;
45043;SDS011;30784;48.490;9.688;2023-05-29T11:26:51;6.90;;;2.63;;
45043;SDS011;30784;48.490;9.688;2023-05-29T11:29:27;6.07;;;2.33;;
45043;SDS011;30784;48.490;9.688;2023-05-29T11:32:06;6.97;;;2.88;;
45043;SDS011;30784;48.490;9.688;2023-05-29T11:34:38;6.97;;;2.90;;
45043;SDS011;30784;48.490;9.688;2023-05-29T11:39:35;6.82;;;2.65;;
45043;SDS011;30784;48.490;9.688;2023-05-29T11:42:01;6.88;;;2.47;;
45043;SDS011;30784;48.490;9.688;2023-05-29T11:44:27;7.40;;;2.83;;
45043;SDS011;30784;48.490;9.688;2023-05-29T11:47:26;6.13;;;2.25;;
45043;SDS011;30784;48.490;9.688;2023-05-29T11:49:47;6.05;;;2.10;;
45043;SDS011;30784;48.490;9.688;2023-05-29T11:52:14;6.65;;;2.55;;
45043;SDS011;30784;48.490;9.688;2023-05-29T11:54:41;7.30;;;2.28;;
45043;SDS011;30784;48.490;9.688;2023-05-29T11:59:42;6.95;;;2.38;;
45043;SDS011;30784;48.490;9.688;2023-05-29T12:02:08;7.53;;;2.50;;
45043;SDS011;30784;48.490;9.688;2023-05-29T12:04:33;5.82;;;2.30;;
45043;SDS011;30784;48.490;9.688;2023-05-29T12:06:59;6.20;;;2.22;;
45043;SDS011;30784;48.490;9.688;2023-05-29T12:09:26;6.05;;;2.33;;
45043;SDS011;30784;48.490;9.688;2023-05-29T12:11:53;7.07;;;2.30;;
45043;SDS011;30784;48.490;9.688;2023-05-29T12:14:28;7.32;;;2.42;;
45043;SDS011;30784;48.490;9.688;2023-05-29T12:16:53;7.03;;;2.58;;
45043;SDS011;30784;48.490;9.688;2023-05-29T12:19:19;7.93;;;2.33;;
45043;SDS011;30784;48.490;9.688;2023-05-29T12:21:45;6.35;;;2.20;;
45043;SDS011;30784;48.490;9.688;2023-05-29T12:24:10;7.15;;;2.60;;
45043;SDS011;30784;48.490;9.688;2023-05-29T12:26:36;6.53;;;2.40;;
45043;SDS011;30784;48.490;9.688;2023-05-29T12:29:03;6.78;;;2.42;;
45043;SDS011;30784;48.490;9.688;2023-05-29T12:31:30;7.03;;;2.35;;
45043;SDS011;30784;48.490;9.688;2023-05-29T12:33:59;6.00;;;2.28;;
45043;SDS011;30784;48.490;9.688;2023-05-29T12:36:39;5.40;;;2.30;;
45043;SDS011;30784;48.490;9.688;2023-05-29T12:39:06;5.88;;;2.20;;
45043;SDS011;30784;48.490;9.688;2023-05-29T12:44:02;6.07;;;2.20;;
45043;SDS011;30784;48.490;9.688;2023-05-29T12:46:36;6.05;;;2.20;;
45043;SDS011;30784;48.490;9.688;2023-05-29T12:49:11;7.18;;;2.20;;
45043;SDS011;30784;48.490;9.688;2023-05-29T12:54:05;6.00;;;2.30;;
45043;SDS011;30784;48.490;9.688;2023-05-29T12:56:30;6.15;;;2.40;;
45043;SDS011;30784;48.490;9.688;2023-05-29T12:58:56;7.13;;;2.60;;
45043;SDS011;30784;48.490;9.688;2023-05-29T13:01:21;6.30;;;2.40;;
45043;SDS011;30784;48.490;9.688;2023-05-29T13:03:49;5.93;;;2.35;;
45043;SDS011;30784;48.490;9.688;2023-05-29T13:06:15;6.78;;;2.15;;
45043;SDS011;30784;48.490;9.688;2023-05-29T13:08:40;6.55;;;2.63;;
45043;SDS011;30784;48.490;9.688;2023-05-29T13:11:07;8.55;;;2.60;;
45043;SDS011;30784;48.490;9.688;2023-05-29T13:13:33;6.78;;;2.20;;
45043;SDS011;30784;48.490;9.688;2023-05-29T13:15:58;6.18;;;2.40;;
45043;SDS011;30784;48.490;9.688;2023-05-29T13:18:24;5.93;;;2.40;;
45043;SDS011;30784;48.490;9.688;2023-05-29T13:20:50;5.70;;;2.10;;
45043;SDS011;30784;48.490;9.688;2023-05-29T13:23:15;5.68;;;2.35;;
45043;SDS011;30784;48.490;9.688;2023-05-29T13:25:41;6.20;;;2.58;;
45043;SDS011;30784;48.490;9.688;2023-05-29T13:28:07;6.57;;;2.40;;
45043;SDS011;30784;48.490;9.688;2023-05-29T13:30:32;6.60;;;2.30;;
45043;SDS011;30784;48.490;9.688;2023-05-29T13:32:58;6.20;;;2.47;;
45043;SDS011;30784;48.490;9.688;2023-05-29T13:35:23;6.40;;;2.47;;
45043;SDS011;30784;48.490;9.688;2023-05-29T13:37:49;6.07;;;2.40;;
45043;SDS011;30784;48.490;9.688;2023-05-29T13:40:15;6.32;;;2.35;;
45043;SDS011;30784;48.490;9.688;2023-05-29T13:42:40;5.78;;;2.10;;
45043;SDS011;30784;48.490;9.688;2023-05-29T13:45:06;6.53;;;2.65;;
45043;SDS011;30784;48.490;9.688;2023-05-29T13:47:33;5.85;;;2.33;;
45043;SDS011;30784;48.490;9.688;2023-05-29T13:50:01;6.53;;;2.65;;
45043;SDS011;30784;48.490;9.688;2023-05-29T13:52:27;6.20;;;2.50;;
45043;SDS011;30784;48.490;9.688;2023-05-29T13:54:53;8.45;;;2.30;;
45043;SDS011;30784;48.490;9.688;2023-05-29T13:57:19;6.68;;;2.65;;
45043;SDS011;30784;48.490;9.688;2023-05-29T13:59:44;6.15;;;2.50;;
45043;SDS011;30784;48.490;9.688;2023-05-29T14:02:10;6.50;;;2.40;;
45043;SDS011;30784;48.490;9.688;2023-05-29T14:04:36;6.75;;;2.90;;
45043;SDS011;30784;48.490;9.688;2023-05-29T14:07:04;7.30;;;2.78;;
45043;SDS011;30784;48.490;9.688;2023-05-29T14:09:30;7.03;;;2.58;;
45043;SDS011;30784;48.490;9.688;2023-05-29T14:11:56;6.82;;;2.97;;
45043;SDS011;30784;48.490;9.688;2023-05-29T14:14:24;7.50;;;2.38;;
45043;SDS011;30784;48.490;9.688;2023-05-29T14:16:50;5.93;;;2.25;;
45043;SDS011;30784;48.490;9.688;2023-05-29T14:19:16;6.38;;;2.60;;
45043;SDS011;30784;48.490;9.688;2023-05-29T14:21:43;5.30;;;2.03;;
45043;SDS011;30784;48.490;9.688;2023-05-29T14:24:09;5.90;;;2.05;;
45043;SDS011;30784;48.490;9.688;2023-05-29T14:26:35;5.80;;;2.30;;
45043;SDS011;30784;48.490;9.688;2023-05-29T14:29:00;6.75;;;2.53;;
45043;SDS011;30784;48.490;9.688;2023-05-29T14:31:26;5.90;;;2.45;;
45043;SDS011;30784;48.490;9.688;2023-05-29T14:33:52;6.15;;;2.38;;
45043;SDS011;30784;48.490;9.688;2023-05-29T14:36:17;6.45;;;2.50;;
45043;SDS011;30784;48.490;9.688;2023-05-29T14:38:43;5.40;;;2.30;;
45043;SDS011;30784;48.490;9.688;2023-05-29T14:41:09;5.75;;;2.30;;
45043;SDS011;30784;48.490;9.688;2023-05-29T14:43:36;6.13;;;2.30;;
45043;SDS011;30784;48.490;9.688;2023-05-29T14:46:02;5.82;;;2.30;;
45043;SDS011;30784;48.490;9.688;2023-05-29T14:48:28;6.75;;;2.58;;
45043;SDS011;30784;48.490;9.688;2023-05-29T14:50:54;6.35;;;2.60;;
45043;SDS011;30784;48.490;9.688;2023-05-29T14:53:19;6.90;;;2.78;;
45043;SDS011;30784;48.490;9.688;2023-05-29T14:55:47;5.53;;;2.45;;
45043;SDS011;30784;48.490;9.688;2023-05-29T14:58:13;6.22;;;2.60;;
45043;SDS011;30784;48.490;9.688;2023-05-29T15:00:39;7.13;;;2.65;;
45043;SDS011;30784;48.490;9.688;2023-05-29T15:03:05;7.13;;;2.80;;
45043;SDS011;30784;48.490;9.688;2023-05-29T15:05:30;6.75;;;2.38;;
45043;SDS011;30784;48.490;9.688;2023-05-29T15:07:56;7.18;;;2.65;;
45043;SDS011;30784;48.490;9.688;2023-05-29T15:10:25;6.63;;;2.55;;
45043;SDS011;30784;48.490;9.688;2023-05-29T15:12:51;6.13;;;2.73;;
45043;SDS011;30784;48.490;9.688;2023-05-29T15:15:27;6.38;;;2.60;;
45043;SDS011;30784;48.490;9.688;2023-05-29T15:17:54;6.43;;;3.00;;
45043;SDS011;30784;48.490;9.688;2023-05-29T15:20:23;6.75;;;2.60;;
45043;SDS011;30784;48.490;9.688;2023-05-29T15:22:49;6.60;;;3.20;;
45043;SDS011;30784;48.490;9.688;2023-05-29T15:25:16;6.35;;;2.92;;
45043;SDS011;30784;48.490;9.688;2023-05-29T15:27:42;6.32;;;2.47;;
45043;SDS011;30784;48.490;9.688;2023-05-29T15:30:09;6.53;;;2.72;;